sensor_id;sensor_type;location;lat;lon;timestamp;P1;durP1;ratioP1;P2;durP2;ratioP2
55800;SDS011;41730;51.960;20.158;2022-07-06T00:01:27;8.10;;;6.90;;
55800;SDS011;41730;51.960;20.158;2022-07-06T00:03:56;7.80;;;7.00;;
55800;SDS011;41730;51.960;20.158;2022-07-06T00:06:26;9.20;;;7.30;;
55800;SDS011;41730;51.960;20.158;2022-07-06T00:08:55;9.10;;;6.40;;
55800;SDS011;41730;51.960;20.158;2022-07-06T00:11:25;9.80;;;6.90;;
55800;SDS011;41730;51.960;20.158;2022-07-06T00:13:54;7.70;;;6.60;;
55800;SDS011;41730;51.960;20.158;2022-07-06T00:16:23;8.80;;;7.00;;
55800;SDS011;41730;51.960;20.158;2022-07-06T00:18:52;7.50;;;6.30;;
55800;SDS011;41730;51.960;20.158;2022-07-06T00:21:21;10.70;;;6.90;;
55800;SDS011;41730;51.960;20.158;2022-07-06T00:23:50;8.20;;;6.60;;
55800;SDS011;41730;51.960;20.158;2022-07-06T00:26:19;9.50;;;6.80;;
55800;SDS011;41730;51.960;20.158;2022-07-06T00:28:48;10.50;;;6.80;;
55800;SDS011;41730;51.960;20.158;2022-07-06T00:31:18;10.40;;;7.40;;
55800;SDS011;41730;51.960;20.158;2022-07-06T00:33:47;11.00;;;6.30;;
55800;SDS011;41730;51.960;20.158;2022-07-06T00:36:16;11.40;;;7.00;;
55800;SDS011;41730;51.960;20.158;2022-07-06T00:38:45;7.70;;;6.80;;
55800;SDS011;41730;51.960;20.158;2022-07-06T00:41:14;8.80;;;7.00;;
55800;SDS011;41730;51.960;20.158;2022-07-06T00:43:47;7.90;;;6.70;;
55800;SDS011;41730;51.960;20.158;2022-07-06T00:46:23;9.80;;;7.20;;
55800;SDS011;41730;51.960;20.158;2022-07-06T00:48:55;10.70;;;7.10;;
55800;SDS011;41730;51.960;20.158;2022-07-06T00:51:25;9.60;;;7.40;;
55800;SDS011;41730;51.960;20.158;2022-07-06T00:53:57;9.10;;;7.10;;
55800;SDS011;41730;51.960;20.158;2022-07-06T00:56:28;9.50;;;6.90;;
55800;SDS011;41730;51.960;20.158;2022-07-06T00:58:58;10.70;;;7.20;;
55800;SDS011;41730;51.960;20.158;2022-07-06T01:01:29;8.90;;;6.40;;
55800;SDS011;41730;51.960;20.158;2022-07-06T01:03:58;9.50;;;6.80;;
55800;SDS011;41730;51.960;20.158;2022-07-06T01:06:27;9.70;;;6.90;;
55800;SDS011;41730;51.960;20.158;2022-07-06T01:08:56;9.40;;;7.30;;
55800;SDS011;41730;51.960;20.158;2022-07-06T01:11:26;10.80;;;7.00;;
55800;SDS011;41730;51.960;20.158;2022-07-06T01:13:55;8.60;;;6.20;;
55800;SDS011;41730;51.960;20.158;2022-07-06T01:16:27;9.90;;;6.90;;
55800;SDS011;41730;51.960;20.158;2022-07-06T01:18:56;11.70;;;6.50;;
55800;SDS011;41730;51.960;20.158;2022-07-06T01:21:25;9.60;;;7.00;;
55800;SDS011;41730;51.960;20.158;2022-07-06T01:23:55;11.20;;;6.20;;
55800;SDS011;41730;51.960;20.158;2022-07-06T01:26:24;8.80;;;7.20;;
55800;SDS011;41730;51.960;20.158;2022-07-06T01:28:53;9.20;;;6.40;;
55800;SDS011;41730;51.960;20.158;2022-07-06T01:31:22;9.40;;;6.80;;
55800;SDS011;41730;51.960;20.158;2022-07-06T01:33:53;11.80;;;7.00;;
55800;SDS011;41730;51.960;20.158;2022-07-06T01:36:23;9.10;;;6.10;;
55800;SDS011;41730;51.960;20.158;2022-07-06T01:38:53;7.60;;;6.80;;
55800;SDS011;41730;51.960;20.158;2022-07-06T01:41:25;8.40;;;6.60;;
55800;SDS011;41730;51.960;20.158;2022-07-06T01:43:54;8.80;;;6.30;;
55800;SDS011;41730;51.960;20.158;2022-07-06T01:46:23;9.30;;;6.70;;
55800;SDS011;41730;51.960;20.158;2022-07-06T01:48:52;8.40;;;6.50;;
55800;SDS011;41730;51.960;20.158;2022-07-06T01:51:21;11.30;;;6.60;;
55800;SDS011;41730;51.960;20.158;2022-07-06T01:53:51;7.80;;;5.70;;
55800;SDS011;41730;51.960;20.158;2022-07-06T01:56:20;9.60;;;6.40;;
55800;SDS011;41730;51.960;20.158;2022-07-06T01:58:49;11.40;;;6.60;;
55800;SDS011;41730;51.960;20.158;2022-07-06T02:01:18;9.50;;;6.90;;
55800;SDS011;41730;51.960;20.158;2022-07-06T02:03:48;7.80;;;6.40;;
55800;SDS011;41730;51.960;20.158;2022-07-06T02:06:17;9.30;;;6.70;;
55800;SDS011;41730;51.960;20.158;2022-07-06T02:08:46;10.00;;;6.70;;
55800;SDS011;41730;51.960;20.158;2022-07-06T02:11:15;10.00;;;6.70;;
55800;SDS011;41730;51.960;20.158;2022-07-06T02:13:44;8.70;;;6.60;;
55800;SDS011;41730;51.960;20.158;2022-07-06T02:16:13;9.80;;;7.10;;
55800;SDS011;41730;51.960;20.158;2022-07-06T02:18:42;13.50;;;7.90;;
55800;SDS011;41730;51.960;20.158;2022-07-06T02:21:11;12.90;;;7.00;;
55800;SDS011;41730;51.960;20.158;2022-07-06T02:23:40;8.30;;;7.20;;
55800;SDS011;41730;51.960;20.158;2022-07-06T02:26:09;9.70;;;7.10;;
55800;SDS011;41730;51.960;20.158;2022-07-06T02:28:38;9.90;;;6.70;;
55800;SDS011;41730;51.960;20.158;2022-07-06T02:31:07;10.10;;;6.90;;
55800;SDS011;41730;51.960;20.158;2022-07-06T02:33:36;9.70;;;6.40;;
55800;SDS011;41730;51.960;20.158;2022-07-06T02:36:05;12.40;;;6.80;;
55800;SDS011;41730;51.960;20.158;2022-07-06T02:38:34;8.40;;;6.90;;
55800;SDS011;41730;51.960;20.158;2022-07-06T02:41:04;11.50;;;7.80;;
55800;SDS011;41730;51.960;20.158;2022-07-06T02:43:33;10.40;;;6.40;;
55800;SDS011;41730;51.960;20.158;2022-07-06T02:46:04;8.80;;;6.90;;
55800;SDS011;41730;51.960;20.158;2022-07-06T02:48:33;10.00;;;7.20;;
55800;SDS011;41730;51.960;20.158;2022-07-06T02:51:02;13.20;;;7.20;;
55800;SDS011;41730;51.960;20.158;2022-07-06T02:53:31;10.40;;;7.60;;
55800;SDS011;41730;51.960;20.158;2022-07-06T02:56:00;10.60;;;7.90;;
55800;SDS011;41730;51.960;20.158;2022-07-06T02:58:29;13.30;;;7.60;;
55800;SDS011;41730;51.960;20.158;2022-07-06T03:00:58;13.40;;;7.80;;
55800;SDS011;41730;51.960;20.158;2022-07-06T03:03:27;11.70;;;8.10;;
55800;SDS011;41730;51.960;20.158;2022-07-06T03:05:56;13.10;;;8.30;;
55800;SDS011;41730;51.960;20.158;2022-07-06T03:08:25;11.90;;;8.00;;
55800;SDS011;41730;51.960;20.158;2022-07-06T03:10:55;11.80;;;7.80;;
55800;SDS011;41730;51.960;20.158;2022-07-06T03:13:24;10.70;;;7.90;;
55800;SDS011;41730;51.960;20.158;2022-07-06T03:15:54;10.40;;;7.80;;
55800;SDS011;41730;51.960;20.158;2022-07-06T03:18:23;10.60;;;8.00;;
55800;SDS011;41730;51.960;20.158;2022-07-06T03:20:53;12.00;;;7.70;;
55800;SDS011;41730;51.960;20.158;2022-07-06T03:23:22;12.10;;;7.90;;
55800;SDS011;41730;51.960;20.158;2022-07-06T03:25:51;11.70;;;8.00;;
55800;SDS011;41730;51.960;20.158;2022-07-06T03:28:20;10.10;;;7.20;;
55800;SDS011;41730;51.960;20.158;2022-07-06T03:30:52;11.80;;;7.40;;
55800;SDS011;41730;51.960;20.158;2022-07-06T03:33:33;11.00;;;7.70;;
55800;SDS011;41730;51.960;20.158;2022-07-06T03:36:15;11.60;;;6.90;;
55800;SDS011;41730;51.960;20.158;2022-07-06T03:38:56;15.80;;;8.00;;
55800;SDS011;41730;51.960;20.158;2022-07-06T03:41:37;14.10;;;8.10;;
55800;SDS011;41730;51.960;20.158;2022-07-06T03:44:19;17.50;;;7.90;;
55800;SDS011;41730;51.960;20.158;2022-07-06T03:46:59;10.40;;;7.70;;
55800;SDS011;41730;51.960;20.158;2022-07-06T03:49:39;12.10;;;7.70;;
55800;SDS011;41730;51.960;20.158;2022-07-06T03:52:10;9.10;;;7.60;;
55800;SDS011;41730;51.960;20.158;2022-07-06T03:54:39;10.80;;;7.50;;
55800;SDS011;41730;51.960;20.158;2022-07-06T03:57:08;9.70;;;7.70;;
55800;SDS011;41730;51.960;20.158;2022-07-06T03:59:38;10.70;;;7.90;;
55800;SDS011;41730;51.960;20.158;2022-07-06T04:02:07;9.90;;;8.00;;
55800;SDS011;41730;51.960;20.158;2022-07-06T04:04:36;10.80;;;7.90;;
55800;SDS011;41730;51.960;20.158;2022-07-06T04:07:05;13.40;;;7.70;;
55800;SDS011;41730;51.960;20.158;2022-07-06T04:09:34;11.90;;;6.90;;
55800;SDS011;41730;51.960;20.158;2022-07-06T04:12:04;10.60;;;8.00;;
55800;SDS011;41730;51.960;20.158;2022-07-06T04:14:35;9.10;;;7.50;;
55800;SDS011;41730;51.960;20.158;2022-07-06T04:17:04;10.90;;;7.70;;
55800;SDS011;41730;51.960;20.158;2022-07-06T04:19:48;10.10;;;7.70;;
55800;SDS011;41730;51.960;20.158;2022-07-06T04:22:17;13.90;;;6.80;;
55800;SDS011;41730;51.960;20.158;2022-07-06T04:24:45;9.70;;;7.50;;
55800;SDS011;41730;51.960;20.158;2022-07-06T04:27:14;13.10;;;7.20;;
55800;SDS011;41730;51.960;20.158;2022-07-06T04:29:43;11.70;;;7.50;;
55800;SDS011;41730;51.960;20.158;2022-07-06T04:32:12;9.80;;;6.20;;
55800;SDS011;41730;51.960;20.158;2022-07-06T04:34:41;10.20;;;6.70;;
55800;SDS011;41730;51.960;20.158;2022-07-06T04:37:09;9.70;;;6.60;;
55800;SDS011;41730;51.960;20.158;2022-07-06T04:39:38;10.20;;;6.90;;
55800;SDS011;41730;51.960;20.158;2022-07-06T04:42:08;8.30;;;5.80;;
55800;SDS011;41730;51.960;20.158;2022-07-06T04:44:37;9.70;;;5.90;;
55800;SDS011;41730;51.960;20.158;2022-07-06T04:47:07;7.20;;;5.40;;
55800;SDS011;41730;51.960;20.158;2022-07-06T04:49:36;7.70;;;5.60;;
55800;SDS011;41730;51.960;20.158;2022-07-06T04:52:05;10.10;;;5.10;;
55800;SDS011;41730;51.960;20.158;2022-07-06T04:54:34;12.40;;;5.80;;
55800;SDS011;41730;51.960;20.158;2022-07-06T04:57:04;9.00;;;6.00;;
55800;SDS011;41730;51.960;20.158;2022-07-06T04:59:39;6.90;;;4.90;;
55800;SDS011;41730;51.960;20.158;2022-07-06T05:02:07;8.40;;;4.70;;
55800;SDS011;41730;51.960;20.158;2022-07-06T05:04:36;6.60;;;4.20;;
55800;SDS011;41730;51.960;20.158;2022-07-06T05:07:05;6.30;;;4.60;;
55800;SDS011;41730;51.960;20.158;2022-07-06T05:09:34;7.70;;;4.30;;
55800;SDS011;41730;51.960;20.158;2022-07-06T05:12:04;7.40;;;4.20;;
55800;SDS011;41730;51.960;20.158;2022-07-06T05:14:34;9.70;;;4.50;;
55800;SDS011;41730;51.960;20.158;2022-07-06T05:17:03;5.50;;;3.80;;
55800;SDS011;41730;51.960;20.158;2022-07-06T05:19:32;6.90;;;4.20;;
55800;SDS011;41730;51.960;20.158;2022-07-06T05:22:01;7.40;;;3.50;;
55800;SDS011;41730;51.960;20.158;2022-07-06T05:24:30;5.30;;;3.60;;
55800;SDS011;41730;51.960;20.158;2022-07-06T05:26:59;8.20;;;3.70;;
55800;SDS011;41730;51.960;20.158;2022-07-06T05:29:29;5.30;;;2.90;;
55800;SDS011;41730;51.960;20.158;2022-07-06T05:31:59;8.00;;;3.30;;
55800;SDS011;41730;51.960;20.158;2022-07-06T05:34:29;7.00;;;3.40;;
55800;SDS011;41730;51.960;20.158;2022-07-06T05:36:58;4.30;;;3.10;;
55800;SDS011;41730;51.960;20.158;2022-07-06T05:39:27;5.00;;;3.50;;
55800;SDS011;41730;51.960;20.158;2022-07-06T05:41:55;5.80;;;3.30;;
55800;SDS011;41730;51.960;20.158;2022-07-06T05:44:24;8.90;;;3.40;;
55800;SDS011;41730;51.960;20.158;2022-07-06T05:46:53;5.60;;;3.20;;
55800;SDS011;41730;51.960;20.158;2022-07-06T05:49:43;7.20;;;3.10;;
55800;SDS011;41730;51.960;20.158;2022-07-06T05:52:29;3.70;;;2.80;;
55800;SDS011;41730;51.960;20.158;2022-07-06T05:54:58;4.20;;;2.80;;
55800;SDS011;41730;51.960;20.158;2022-07-06T05:57:27;6.40;;;3.10;;
55800;SDS011;41730;51.960;20.158;2022-07-06T05:59:56;5.80;;;2.80;;
55800;SDS011;41730;51.960;20.158;2022-07-06T06:02:25;6.90;;;3.10;;
55800;SDS011;41730;51.960;20.158;2022-07-06T06:05:03;5.80;;;2.90;;
55800;SDS011;41730;51.960;20.158;2022-07-06T06:07:34;8.70;;;3.00;;
55800;SDS011;41730;51.960;20.158;2022-07-06T06:10:04;5.60;;;2.80;;
55800;SDS011;41730;51.960;20.158;2022-07-06T06:12:35;10.60;;;3.70;;
55800;SDS011;41730;51.960;20.158;2022-07-06T06:15:06;7.20;;;3.00;;
55800;SDS011;41730;51.960;20.158;2022-07-06T06:17:36;6.10;;;3.00;;
55800;SDS011;41730;51.960;20.158;2022-07-06T06:20:07;5.90;;;2.50;;
55800;SDS011;41730;51.960;20.158;2022-07-06T06:22:45;5.30;;;3.30;;
55800;SDS011;41730;51.960;20.158;2022-07-06T06:25:18;4.90;;;3.10;;
55800;SDS011;41730;51.960;20.158;2022-07-06T06:27:48;6.80;;;3.50;;
55800;SDS011;41730;51.960;20.158;2022-07-06T06:30:17;5.10;;;3.30;;
55800;SDS011;41730;51.960;20.158;2022-07-06T06:32:46;7.40;;;4.80;;
55800;SDS011;41730;51.960;20.158;2022-07-06T06:35:15;6.30;;;3.90;;
55800;SDS011;41730;51.960;20.158;2022-07-06T06:37:44;8.10;;;3.70;;
55800;SDS011;41730;51.960;20.158;2022-07-06T06:40:13;4.70;;;3.00;;
55800;SDS011;41730;51.960;20.158;2022-07-06T06:42:42;5.30;;;3.20;;
55800;SDS011;41730;51.960;20.158;2022-07-06T06:45:11;6.90;;;4.10;;
55800;SDS011;41730;51.960;20.158;2022-07-06T06:47:40;6.90;;;3.80;;
55800;SDS011;41730;51.960;20.158;2022-07-06T06:50:10;6.90;;;3.60;;
55800;SDS011;41730;51.960;20.158;2022-07-06T06:52:39;6.00;;;3.10;;
55800;SDS011;41730;51.960;20.158;2022-07-06T06:55:09;7.70;;;4.60;;
55800;SDS011;41730;51.960;20.158;2022-07-06T06:57:38;7.80;;;4.20;;
55800;SDS011;41730;51.960;20.158;2022-07-06T07:00:09;7.20;;;3.90;;
55800;SDS011;41730;51.960;20.158;2022-07-06T07:02:40;6.30;;;4.20;;
55800;SDS011;41730;51.960;20.158;2022-07-06T07:05:10;8.30;;;3.50;;
55800;SDS011;41730;51.960;20.158;2022-07-06T07:07:39;4.30;;;3.00;;
55800;SDS011;41730;51.960;20.158;2022-07-06T07:10:08;4.50;;;3.20;;
55800;SDS011;41730;51.960;20.158;2022-07-06T07:12:42;4.40;;;2.90;;
55800;SDS011;41730;51.960;20.158;2022-07-06T07:15:12;3.10;;;2.30;;
55800;SDS011;41730;51.960;20.158;2022-07-06T07:17:41;5.00;;;2.30;;
55800;SDS011;41730;51.960;20.158;2022-07-06T07:20:12;4.20;;;2.20;;
55800;SDS011;41730;51.960;20.158;2022-07-06T07:22:42;4.90;;;1.50;;
55800;SDS011;41730;51.960;20.158;2022-07-06T07:25:11;2.60;;;1.90;;
55800;SDS011;41730;51.960;20.158;2022-07-06T07:27:40;6.00;;;2.50;;
55800;SDS011;41730;51.960;20.158;2022-07-06T07:30:10;4.00;;;2.00;;
55800;SDS011;41730;51.960;20.158;2022-07-06T07:32:39;5.40;;;2.00;;
55800;SDS011;41730;51.960;20.158;2022-07-06T07:35:11;3.20;;;1.60;;
55800;SDS011;41730;51.960;20.158;2022-07-06T07:37:44;2.70;;;1.60;;
55800;SDS011;41730;51.960;20.158;2022-07-06T07:40:13;2.50;;;1.40;;
55800;SDS011;41730;51.960;20.158;2022-07-06T07:42:42;5.00;;;1.40;;
55800;SDS011;41730;51.960;20.158;2022-07-06T07:45:12;2.90;;;1.60;;
55800;SDS011;41730;51.960;20.158;2022-07-06T07:47:41;2.60;;;1.30;;
55800;SDS011;41730;51.960;20.158;2022-07-06T07:50:11;2.70;;;1.30;;
55800;SDS011;41730;51.960;20.158;2022-07-06T07:52:41;3.30;;;1.40;;
55800;SDS011;41730;51.960;20.158;2022-07-06T07:55:10;2.70;;;1.20;;
55800;SDS011;41730;51.960;20.158;2022-07-06T07:58:00;2.40;;;1.70;;
55800;SDS011;41730;51.960;20.158;2022-07-06T08:00:29;5.40;;;1.70;;
55800;SDS011;41730;51.960;20.158;2022-07-06T08:02:58;4.40;;;1.10;;
55800;SDS011;41730;51.960;20.158;2022-07-06T08:05:28;2.70;;;1.30;;
55800;SDS011;41730;51.960;20.158;2022-07-06T08:07:57;2.50;;;1.10;;
55800;SDS011;41730;51.960;20.158;2022-07-06T08:10:26;3.20;;;1.40;;
55800;SDS011;41730;51.960;20.158;2022-07-06T08:12:56;2.30;;;1.20;;
55800;SDS011;41730;51.960;20.158;2022-07-06T08:15:25;2.30;;;1.20;;
55800;SDS011;41730;51.960;20.158;2022-07-06T08:17:58;3.40;;;1.20;;
55800;SDS011;41730;51.960;20.158;2022-07-06T08:20:27;2.60;;;1.00;;
55800;SDS011;41730;51.960;20.158;2022-07-06T08:22:56;2.20;;;1.20;;
55800;SDS011;41730;51.960;20.158;2022-07-06T08:25:25;2.70;;;1.20;;
55800;SDS011;41730;51.960;20.158;2022-07-06T08:27:56;2.90;;;1.20;;
55800;SDS011;41730;51.960;20.158;2022-07-06T08:30:28;1.30;;;0.80;;
55800;SDS011;41730;51.960;20.158;2022-07-06T08:33:01;2.20;;;1.00;;
55800;SDS011;41730;51.960;20.158;2022-07-06T08:35:34;2.60;;;1.30;;
55800;SDS011;41730;51.960;20.158;2022-07-06T08:38:03;2.00;;;0.90;;
55800;SDS011;41730;51.960;20.158;2022-07-06T08:40:35;3.00;;;1.10;;
55800;SDS011;41730;51.960;20.158;2022-07-06T08:43:10;3.20;;;1.10;;
55800;SDS011;41730;51.960;20.158;2022-07-06T08:45:44;4.90;;;1.40;;
55800;SDS011;41730;51.960;20.158;2022-07-06T08:48:14;2.00;;;1.00;;
55800;SDS011;41730;51.960;20.158;2022-07-06T08:50:43;3.30;;;1.10;;
55800;SDS011;41730;51.960;20.158;2022-07-06T08:53:13;1.80;;;1.00;;
55800;SDS011;41730;51.960;20.158;2022-07-06T08:55:43;3.10;;;0.90;;
55800;SDS011;41730;51.960;20.158;2022-07-06T08:58:12;4.30;;;1.00;;
55800;SDS011;41730;51.960;20.158;2022-07-06T09:00:41;3.40;;;1.00;;
55800;SDS011;41730;51.960;20.158;2022-07-06T09:03:12;2.90;;;1.10;;
55800;SDS011;41730;51.960;20.158;2022-07-06T09:05:41;1.80;;;0.90;;
55800;SDS011;41730;51.960;20.158;2022-07-06T09:08:17;2.40;;;0.80;;
55800;SDS011;41730;51.960;20.158;2022-07-06T09:10:46;3.00;;;0.80;;
55800;SDS011;41730;51.960;20.158;2022-07-06T09:13:15;2.30;;;0.80;;
55800;SDS011;41730;51.960;20.158;2022-07-06T09:15:44;2.30;;;0.90;;
55800;SDS011;41730;51.960;20.158;2022-07-06T09:18:14;2.10;;;1.00;;
55800;SDS011;41730;51.960;20.158;2022-07-06T09:20:43;2.30;;;0.90;;
55800;SDS011;41730;51.960;20.158;2022-07-06T09:23:14;3.60;;;0.80;;
55800;SDS011;41730;51.960;20.158;2022-07-06T09:25:47;2.60;;;0.70;;
55800;SDS011;41730;51.960;20.158;2022-07-06T09:28:17;3.90;;;0.90;;
55800;SDS011;41730;51.960;20.158;2022-07-06T09:30:46;2.10;;;0.70;;
55800;SDS011;41730;51.960;20.158;2022-07-06T09:33:17;1.90;;;0.70;;
55800;SDS011;41730;51.960;20.158;2022-07-06T09:35:46;1.80;;;0.80;;
55800;SDS011;41730;51.960;20.158;2022-07-06T09:38:15;2.30;;;0.70;;
55800;SDS011;41730;51.960;20.158;2022-07-06T09:40:45;4.70;;;0.60;;
55800;SDS011;41730;51.960;20.158;2022-07-06T09:43:16;1.60;;;0.70;;
55800;SDS011;41730;51.960;20.158;2022-07-06T09:45:46;3.80;;;0.80;;
55800;SDS011;41730;51.960;20.158;2022-07-06T09:48:17;3.00;;;0.70;;
55800;SDS011;41730;51.960;20.158;2022-07-06T09:50:49;1.80;;;0.70;;
55800;SDS011;41730;51.960;20.158;2022-07-06T09:53:20;2.00;;;0.80;;
55800;SDS011;41730;51.960;20.158;2022-07-06T09:55:50;1.70;;;0.70;;
55800;SDS011;41730;51.960;20.158;2022-07-06T09:58:20;1.60;;;0.70;;
55800;SDS011;41730;51.960;20.158;2022-07-06T10:01:10;4.10;;;0.90;;
55800;SDS011;41730;51.960;20.158;2022-07-06T10:03:39;1.70;;;0.70;;
55800;SDS011;41730;51.960;20.158;2022-07-06T10:06:09;2.80;;;0.60;;
55800;SDS011;41730;51.960;20.158;2022-07-06T10:08:39;2.60;;;0.80;;
55800;SDS011;41730;51.960;20.158;2022-07-06T10:11:08;2.30;;;0.70;;
55800;SDS011;41730;51.960;20.158;2022-07-06T10:13:41;1.00;;;0.40;;
55800;SDS011;41730;51.960;20.158;2022-07-06T10:16:13;3.50;;;0.70;;
55800;SDS011;41730;51.960;20.158;2022-07-06T10:18:42;3.20;;;0.70;;
55800;SDS011;41730;51.960;20.158;2022-07-06T10:21:12;2.10;;;0.70;;
55800;SDS011;41730;51.960;20.158;2022-07-06T10:23:42;1.30;;;0.60;;
55800;SDS011;41730;51.960;20.158;2022-07-06T10:26:11;2.50;;;0.60;;
55800;SDS011;41730;51.960;20.158;2022-07-06T10:28:42;2.60;;;0.80;;
55800;SDS011;41730;51.960;20.158;2022-07-06T10:31:14;2.30;;;0.70;;
55800;SDS011;41730;51.960;20.158;2022-07-06T10:33:45;2.30;;;0.70;;
55800;SDS011;41730;51.960;20.158;2022-07-06T10:36:15;2.60;;;0.80;;
55800;SDS011;41730;51.960;20.158;2022-07-06T10:38:48;4.70;;;0.80;;
55800;SDS011;41730;51.960;20.158;2022-07-06T10:41:18;2.80;;;0.70;;
55800;SDS011;41730;51.960;20.158;2022-07-06T10:44:03;1.40;;;0.50;;
55800;SDS011;41730;51.960;20.158;2022-07-06T10:46:50;1.50;;;0.60;;
55800;SDS011;41730;51.960;20.158;2022-07-06T10:49:20;2.80;;;0.90;;
55800;SDS011;41730;51.960;20.158;2022-07-06T10:52:10;1.90;;;0.80;;
55800;SDS011;41730;51.960;20.158;2022-07-06T10:54:43;2.60;;;1.10;;
55800;SDS011;41730;51.960;20.158;2022-07-06T10:57:13;1.60;;;0.80;;
55800;SDS011;41730;51.960;20.158;2022-07-06T10:59:50;2.60;;;0.80;;
55800;SDS011;41730;51.960;20.158;2022-07-06T11:02:30;1.50;;;0.80;;
55800;SDS011;41730;51.960;20.158;2022-07-06T11:05:09;2.90;;;0.90;;
55800;SDS011;41730;51.960;20.158;2022-07-06T11:07:49;2.40;;;0.90;;
55800;SDS011;41730;51.960;20.158;2022-07-06T11:10:18;3.20;;;0.90;;
55800;SDS011;41730;51.960;20.158;2022-07-06T11:12:50;1.80;;;0.80;;
55800;SDS011;41730;51.960;20.158;2022-07-06T11:18:19;1.60;;;0.90;;
55800;SDS011;41730;51.960;20.158;2022-07-06T11:23:48;2.90;;;1.20;;
55800;SDS011;41730;51.960;20.158;2022-07-06T11:26:17;2.40;;;1.10;;
55800;SDS011;41730;51.960;20.158;2022-07-06T11:28:46;2.50;;;1.00;;
55800;SDS011;41730;51.960;20.158;2022-07-06T11:31:16;3.00;;;0.90;;
55800;SDS011;41730;51.960;20.158;2022-07-06T11:33:45;2.40;;;1.00;;
55800;SDS011;41730;51.960;20.158;2022-07-06T11:36:16;2.30;;;0.90;;
55800;SDS011;41730;51.960;20.158;2022-07-06T11:38:47;2.10;;;1.00;;
55800;SDS011;41730;51.960;20.158;2022-07-06T11:41:16;2.10;;;0.80;;
55800;SDS011;41730;51.960;20.158;2022-07-06T11:43:46;2.70;;;0.90;;
55800;SDS011;41730;51.960;20.158;2022-07-06T11:46:27;3.20;;;1.00;;
55800;SDS011;41730;51.960;20.158;2022-07-06T11:48:58;2.70;;;0.90;;
55800;SDS011;41730;51.960;20.158;2022-07-06T11:51:29;3.30;;;1.10;;
55800;SDS011;41730;51.960;20.158;2022-07-06T11:54:01;4.40;;;1.10;;
55800;SDS011;41730;51.960;20.158;2022-07-06T11:56:37;2.90;;;1.10;;
55800;SDS011;41730;51.960;20.158;2022-07-06T11:59:13;1.90;;;0.90;;
55800;SDS011;41730;51.960;20.158;2022-07-06T12:01:43;2.90;;;1.20;;
55800;SDS011;41730;51.960;20.158;2022-07-06T12:04:12;2.80;;;1.30;;
55800;SDS011;41730;51.960;20.158;2022-07-06T12:06:43;3.00;;;1.30;;
55800;SDS011;41730;51.960;20.158;2022-07-06T12:09:13;2.00;;;0.90;;
55800;SDS011;41730;51.960;20.158;2022-07-06T12:11:44;1.30;;;0.90;;
55800;SDS011;41730;51.960;20.158;2022-07-06T12:14:14;2.40;;;1.00;;
55800;SDS011;41730;51.960;20.158;2022-07-06T12:16:45;2.20;;;1.00;;
55800;SDS011;41730;51.960;20.158;2022-07-06T12:19:16;1.70;;;0.80;;
55800;SDS011;41730;51.960;20.158;2022-07-06T12:21:49;2.20;;;0.80;;
55800;SDS011;41730;51.960;20.158;2022-07-06T12:24:19;1.80;;;0.80;;
55800;SDS011;41730;51.960;20.158;2022-07-06T12:26:50;2.50;;;0.70;;
55800;SDS011;41730;51.960;20.158;2022-07-06T12:29:20;2.00;;;0.70;;
55800;SDS011;41730;51.960;20.158;2022-07-06T12:31:50;2.30;;;0.70;;
55800;SDS011;41730;51.960;20.158;2022-07-06T12:34:21;1.50;;;0.60;;
55800;SDS011;41730;51.960;20.158;2022-07-06T12:36:51;2.10;;;0.60;;
55800;SDS011;41730;51.960;20.158;2022-07-06T12:39:22;4.80;;;1.00;;
55800;SDS011;41730;51.960;20.158;2022-07-06T12:41:52;1.50;;;0.70;;
55800;SDS011;41730;51.960;20.158;2022-07-06T12:44:24;1.90;;;0.60;;
55800;SDS011;41730;51.960;20.158;2022-07-06T12:47:02;1.40;;;0.70;;
55800;SDS011;41730;51.960;20.158;2022-07-06T12:49:32;2.60;;;0.80;;
55800;SDS011;41730;51.960;20.158;2022-07-06T12:52:03;1.80;;;0.70;;
55800;SDS011;41730;51.960;20.158;2022-07-06T12:54:41;2.10;;;0.70;;
55800;SDS011;41730;51.960;20.158;2022-07-06T12:57:13;3.40;;;0.90;;
55800;SDS011;41730;51.960;20.158;2022-07-06T12:59:44;2.20;;;0.70;;
55800;SDS011;41730;51.960;20.158;2022-07-06T13:02:21;2.30;;;0.90;;
55800;SDS011;41730;51.960;20.158;2022-07-06T13:05:12;2.50;;;0.80;;
55800;SDS011;41730;51.960;20.158;2022-07-06T13:07:44;1.40;;;0.70;;
55800;SDS011;41730;51.960;20.158;2022-07-06T13:10:15;1.40;;;0.50;;
55800;SDS011;41730;51.960;20.158;2022-07-06T13:12:44;5.10;;;1.00;;
55800;SDS011;41730;51.960;20.158;2022-07-06T13:15:13;2.40;;;0.90;;
55800;SDS011;41730;51.960;20.158;2022-07-06T13:17:45;4.40;;;1.20;;
55800;SDS011;41730;51.960;20.158;2022-07-06T13:20:14;2.90;;;1.00;;
55800;SDS011;41730;51.960;20.158;2022-07-06T13:22:44;5.50;;;1.20;;
55800;SDS011;41730;51.960;20.158;2022-07-06T13:25:13;4.50;;;1.20;;
55800;SDS011;41730;51.960;20.158;2022-07-06T13:27:42;2.40;;;1.20;;
55800;SDS011;41730;51.960;20.158;2022-07-06T13:30:12;5.80;;;1.30;;
55800;SDS011;41730;51.960;20.158;2022-07-06T13:32:41;3.70;;;1.20;;
55800;SDS011;41730;51.960;20.158;2022-07-06T13:35:10;2.70;;;1.10;;
55800;SDS011;41730;51.960;20.158;2022-07-06T13:37:40;5.50;;;1.40;;
55800;SDS011;41730;51.960;20.158;2022-07-06T13:40:10;3.80;;;1.20;;
55800;SDS011;41730;51.960;20.158;2022-07-06T13:42:41;4.20;;;1.30;;
55800;SDS011;41730;51.960;20.158;2022-07-06T13:45:11;2.30;;;1.20;;
55800;SDS011;41730;51.960;20.158;2022-07-06T13:47:40;4.90;;;1.30;;
55800;SDS011;41730;51.960;20.158;2022-07-06T13:50:09;3.80;;;1.20;;
55800;SDS011;41730;51.960;20.158;2022-07-06T13:52:38;4.90;;;1.30;;
55800;SDS011;41730;51.960;20.158;2022-07-06T13:55:08;3.10;;;1.10;;
55800;SDS011;41730;51.960;20.158;2022-07-06T13:57:37;3.50;;;1.10;;
55800;SDS011;41730;51.960;20.158;2022-07-06T14:00:10;2.30;;;1.00;;
55800;SDS011;41730;51.960;20.158;2022-07-06T14:02:41;2.90;;;1.20;;
55800;SDS011;41730;51.960;20.158;2022-07-06T14:05:10;2.30;;;1.20;;
55800;SDS011;41730;51.960;20.158;2022-07-06T14:07:39;2.70;;;1.10;;
55800;SDS011;41730;51.960;20.158;2022-07-06T14:10:08;2.40;;;1.10;;
55800;SDS011;41730;51.960;20.158;2022-07-06T14:12:37;2.30;;;1.10;;
55800;SDS011;41730;51.960;20.158;2022-07-06T14:15:07;2.80;;;1.10;;
55800;SDS011;41730;51.960;20.158;2022-07-06T14:17:36;2.80;;;1.30;;
55800;SDS011;41730;51.960;20.158;2022-07-06T14:20:07;2.40;;;1.00;;
55800;SDS011;41730;51.960;20.158;2022-07-06T14:22:38;2.80;;;1.30;;
55800;SDS011;41730;51.960;20.158;2022-07-06T14:25:07;3.10;;;1.40;;
55800;SDS011;41730;51.960;20.158;2022-07-06T14:27:37;1.90;;;1.00;;
55800;SDS011;41730;51.960;20.158;2022-07-06T14:30:08;1.90;;;1.00;;
55800;SDS011;41730;51.960;20.158;2022-07-06T14:32:39;2.70;;;1.10;;
55800;SDS011;41730;51.960;20.158;2022-07-06T14:35:10;3.30;;;1.30;;
55800;SDS011;41730;51.960;20.158;2022-07-06T14:37:40;2.40;;;1.30;;
55800;SDS011;41730;51.960;20.158;2022-07-06T14:40:10;2.20;;;1.20;;
55800;SDS011;41730;51.960;20.158;2022-07-06T14:42:39;4.40;;;1.40;;
55800;SDS011;41730;51.960;20.158;2022-07-06T14:45:09;2.50;;;1.20;;
55800;SDS011;41730;51.960;20.158;2022-07-06T14:47:39;2.30;;;1.30;;
55800;SDS011;41730;51.960;20.158;2022-07-06T14:50:08;5.00;;;1.60;;
55800;SDS011;41730;51.960;20.158;2022-07-06T14:52:37;2.20;;;1.40;;
55800;SDS011;41730;51.960;20.158;2022-07-06T14:55:07;3.70;;;1.40;;
55800;SDS011;41730;51.960;20.158;2022-07-06T14:57:41;2.40;;;1.30;;
55800;SDS011;41730;51.960;20.158;2022-07-06T15:00:12;2.90;;;1.20;;